Time;durP1;ratioP1;P1;durP2;ratioP2;P2;SDS_P1;SDS_P2;PMS_P1;PMS_P2;Temp;Humidity;BMP_temperature;BMP_pressure;BME280_temperature;BME280_humidity;BME280_pressure;Samples;Min_cycle;Max_cycle;Signal;HPM_P1;HPM_P2
2023/10/12 00:00:24;;;;;;;8.30;3.55;;;;;;;17.11;100.00;93247.31;2098111;28;20028;-83
2023/10/12 00:01:25;;;;;;;8.43;3.42;;;;;;;17.32;100.00;93243.66;2093005;28;20039;-84
2023/10/12 00:02:27;;;;;;;8.85;3.25;;;;;;;17.26;100.00;93247.44;2099169;28;20027;-83
2023/10/12 00:03:28;;;;;;;6.32;3.30;;;;;;;17.10;100.00;93241.16;2082571;28;20021;-84
2023/10/12 00:04:41;;;;;;;7.50;3.50;;;;;;;17.08;100.00;93240.13;2073301;28;20029;-83
2023/10/12 00:05:45;;;;;;;8.93;3.65;;;;;;;16.72;100.00;93252.47;2092584;28;20044;-83
2023/10/12 00:06:47;;;;;;;7.22;3.80;;;;;;;16.94;100.00;93244.19;2098625;28;20025;-85
2023/10/12 00:07:49;;;;;;;7.50;3.50;;;;;;;16.89;100.00;93247.50;2097960;28;20107;-85
2023/10/12 00:08:50;;;;;;;9.35;3.65;;;;;;;16.76;100.00;93242.28;2102699;28;20476;-84
2023/10/12 00:10:12;;;;;;;6.35;3.53;;;;;;;16.45;100.00;93253.22;2097772;28;20119;-85
2023/10/12 00:11:13;;;;;;;8.45;3.33;;;;;;;16.01;100.00;93247.31;2098445;28;20391;-85
2023/10/12 00:12:24;;;;;;;10.75;3.22;;;;;;;15.98;100.00;93246.28;2111902;28;20125;-85
2023/10/12 00:13:41;;;;;;;10.27;3.70;;;;;;;16.03;100.00;93244.94;2099745;28;20117;-85
2023/10/12 00:14:42;;;;;;;7.85;3.33;;;;;;;15.97;100.00;93244.75;2098004;28;20024;-85
2023/10/12 00:15:46;;;;;;;11.10;3.50;;;;;;;15.84;100.00;93249.53;2093150;28;20210;-84
2023/10/12 00:16:46;;;;;;;9.57;4.03;;;;;;;15.78;100.00;93241.28;2093481;28;20028;-82
2023/10/12 00:17:52;;;;;;;9.27;4.20;;;;;;;15.76;100.00;93249.09;2079407;28;20017;-83
2023/10/12 00:18:53;;;;;;;8.40;4.05;;;;;;;15.56;100.00;93240.59;2084493;28;20026;-84
2023/10/12 00:19:54;;;;;;;7.47;3.35;;;;;;;15.41;100.00;93239.63;2082960;28;20029;-84
2023/10/12 00:20:55;;;;;;;6.07;3.33;;;;;;;15.44;100.00;93244.88;2088780;28;20063;-84
2023/10/12 00:21:59;;;;;;;9.45;3.80;;;;;;;15.45;100.00;93240.25;2097926;28;20047;-84
2023/10/12 00:23:10;;;;;;;9.57;3.67;;;;;;;15.63;100.00;93240.34;2088720;28;20493;-83
2023/10/12 00:24:13;;;;;;;9.63;3.83;;;;;;;16.02;100.00;93232.63;2096495;28;20564;-82
2023/10/12 00:25:17;;;;;;;6.53;3.65;;;;;;;16.02;100.00;93230.72;2104469;28;20028;-85
2023/10/12 00:26:18;;;;;;;8.10;4.18;;;;;;;15.75;100.00;93238.72;2089558;28;20076;-82
2023/10/12 00:27:20;;;;;;;7.68;3.78;;;;;;;15.67;100.00;93229.41;2078044;28;20031;-85
2023/10/12 00:28:23;;;;;;;6.07;3.50;;;;;;;15.58;100.00;93232.81;2081680;28;20558;-84
2023/10/12 00:29:24;;;;;;;9.15;3.80;;;;;;;15.33;100.00;93239.91;2087989;28;20025;-85
2023/10/12 00:30:25;;;;;;;5.38;3.08;;;;;;;15.29;100.00;93233.91;2105155;28;20024;-84
2023/10/12 00:31:27;;;;;;;5.47;3.20;;;;;;;15.34;100.00;93235.28;2110347;28;20023;-83
2023/10/12 00:32:28;;;;;;;6.82;4.45;;;;;;;15.39;100.00;93240.09;2097354;28;20039;-85
2023/10/12 00:33:29;;;;;;;11.02;3.72;;;;;;;15.34;100.00;93232.59;2086783;28;20739;-85
2023/10/12 00:34:53;;;;;;;7.60;3.80;;;;;;;15.09;100.00;93236.94;2096376;28;20570;-82
2023/10/12 00:36:03;;;;;;;6.43;3.63;;;;;;;14.97;100.00;93235.13;2100903;28;20062;-83
2023/10/12 00:37:06;;;;;;;7.00;3.47;;;;;;;14.85;100.00;93241.31;2093049;28;20048;-83
2023/10/12 00:38:17;;;;;;;5.35;3.28;;;;;;;14.75;100.00;93237.81;2111470;27;20108;-83
2023/10/12 00:39:31;;;;;;;7.78;4.05;;;;;;;14.84;100.00;93237.13;2116601;27;20034;-83
2023/10/12 00:40:32;;;;;;;6.72;3.55;;;;;;;14.62;100.00;93234.44;2106848;28;20377;-83
2023/10/12 00:41:36;;;;;;;9.60;3.42;;;;;;;14.64;100.00;93242.06;2089542;28;20764;-83
2023/10/12 00:42:37;;;;;;;8.55;4.43;;;;;;;14.53;100.00;93237.06;2099639;28;20027;-83
2023/10/12 00:43:49;;;;;;;6.68;3.50;;;;;;;14.57;100.00;93235.00;2103816;28;20027;-82
2023/10/12 00:44:54;;;;;;;8.40;4.20;;;;;;;14.41;100.00;93235.91;2103415;28;20130;-83
2023/10/12 00:45:55;;;;;;;6.20;3.85;;;;;;;14.29;100.00;93228.63;2109074;28;20035;-83
2023/10/12 00:48:06;;;;;;;7.75;3.47;;;;;;;13.98;100.00;93237.34;2098240;28;20025;-82
2023/10/12 00:49:19;;;;;;;9.63;4.30;;;;;;;14.08;100.00;93236.22;2100537;28;20052;-83
2023/10/12 00:50:20;;;;;;;6.80;3.67;;;;;;;14.28;100.00;93229.84;2090899;28;20024;-82
2023/10/12 00:51:22;;;;;;;8.40;3.40;;;;;;;13.93;100.00;93237.88;2090014;28;20575;-83
2023/10/12 00:52:26;;;;;;;11.07;4.05;;;;;;;14.01;100.00;93233.78;2108616;28;20025;-83
2023/10/12 00:53:33;;;;;;;6.65;3.58;;;;;;;14.02;100.00;93235.28;2102612;28;20017;-82
2023/10/12 00:55:39;;;;;;;6.70;4.05;;;;;;;14.01;100.00;93228.41;2101190;28;20024;-83
2023/10/12 00:56:43;;;;;;;5.60;3.60;;;;;;;13.69;100.00;93221.38;2098046;28;20473;-83
2023/10/12 00:57:44;;;;;;;8.40;4.13;;;;;;;13.87;100.00;93231.53;2105853;28;20016;-82
2023/10/12 00:58:45;;;;;;;6.57;3.80;;;;;;;13.78;100.00;93226.88;2100861;28;20048;-82
2023/10/12 00:59:47;;;;;;;9.57;3.85;;;;;;;13.79;100.00;93233.72;2073210;28;20022;-83
2023/10/12 01:00:51;;;;;;;5.90;3.88;;;;;;;13.85;100.00;93217.81;2076761;28;20024;-83
2023/10/12 01:01:53;;;;;;;8.40;3.63;;;;;;;13.64;100.00;93223.88;2073849;28;20105;-83
2023/10/12 01:04:16;;;;;;;6.78;3.58;;;;;;;13.59;100.00;93225.91;2107643;28;20440;-83
2023/10/12 01:05:18;;;;;;;7.18;3.70;;;;;;;13.55;100.00;93219.16;2093278;28;20032;-82
2023/10/12 01:06:28;;;;;;;7.25;4.80;;;;;;;13.62;100.00;93215.50;2086434;28;20100;-82
2023/10/12 01:07:34;;;;;;;9.93;4.05;;;;;;;13.55;100.00;93219.88;2104453;28;20023;-83
2023/10/12 01:08:35;;;;;;;6.13;3.63;;;;;;;13.50;100.00;93217.75;2112185;28;20031;-83
2023/10/12 01:09:39;;;;;;;7.40;3.55;;;;;;;13.41;100.00;93217.66;2102454;28;20024;-83
2023/10/12 01:10:41;;;;;;;5.25;3.22;;;;;;;13.30;100.00;93211.84;2106823;28;20028;-83
2023/10/12 01:11:43;;;;;;;9.45;3.75;;;;;;;13.31;100.00;93221.44;2105847;28;20032;-82
2023/10/12 01:12:45;;;;;;;8.05;4.05;;;;;;;13.28;100.00;93220.34;2097782;28;20091;-83
2023/10/12 01:15:09;;;;;;;6.18;3.20;;;;;;;13.58;100.00;93219.03;2099286;28;20550;-82
2023/10/12 01:16:29;;;;;;;5.68;3.35;;;;;;;13.59;100.00;93219.78;2097171;28;20194;-83
2023/10/12 01:17:30;;;;;;;9.38;3.70;;;;;;;13.59;100.00;93228.59;2091444;28;20385;-83
2023/10/12 01:18:31;;;;;;;7.15;4.22;;;;;;;13.75;100.00;93224.28;2097599;28;20024;-82
2023/10/12 01:19:33;;;;;;;6.68;3.60;;;;;;;13.73;100.00;93219.31;2095568;28;20025;-83
2023/10/12 01:20:39;;;;;;;4.07;3.30;;;;;;;13.64;100.00;93224.59;2097502;28;20047;-83
2023/10/12 01:21:42;;;;;;;9.02;3.67;;;;;;;13.53;100.00;93219.59;2089803;28;20565;-82
2023/10/12 01:22:44;;;;;;;8.88;3.60;;;;;;;13.47;100.00;93215.91;2091867;28;20101;-82
2023/10/12 01:23:50;;;;;;;6.65;3.80;;;;;;;13.50;100.00;93223.13;2088567;28;20044;-82
2023/10/12 01:26:03;;;;;;;5.40;3.42;;;;;;;13.46;100.00;93219.78;2097641;28;20035;-83
2023/10/12 01:27:04;;;;;;;7.13;3.70;;;;;;;13.46;100.00;93222.47;2113851;28;20440;-82
2023/10/12 01:28:06;;;;;;;9.48;3.60;;;;;;;13.49;100.00;93220.88;2106020;28;20031;-83
2023/10/12 01:29:16;;;;;;;5.57;3.20;;;;;;;13.41;100.00;93228.41;2100537;28;20036;-83
2023/10/12 01:30:22;;;;;;;7.25;3.58;;;;;;;13.48;100.00;93225.50;2098774;28;20028;-83
2023/10/12 01:31:30;;;;;;;8.23;3.90;;;;;;;13.61;100.00;93220.13;2089498;28;20044;-83
2023/10/12 01:32:36;;;;;;;6.80;3.28;;;;;;;13.51;100.00;93221.94;2097666;28;20101;-82
2023/10/12 01:33:41;;;;;;;8.43;3.42;;;;;;;13.47;100.00;93220.53;2097549;28;20021;-83
2023/10/12 01:34:52;;;;;;;5.40;3.33;;;;;;;13.52;100.00;93220.78;2096603;28;20029;-83
2023/10/12 01:35:55;;;;;;;7.63;4.28;;;;;;;13.39;100.00;93220.03;2094662;28;20054;-82
2023/10/12 01:36:58;;;;;;;5.47;3.63;;;;;;;13.37;100.00;93216.25;2097854;28;20032;-83
2023/10/12 01:38:08;;;;;;;8.60;3.33;;;;;;;13.28;100.00;93209.59;2090010;28;20075;-83
2023/10/12 01:39:12;;;;;;;7.30;4.18;;;;;;;13.04;100.00;93216.47;2090046;28;20126;-83
2023/10/12 01:40:21;;;;;;;8.27;3.67;;;;;;;13.15;100.00;93218.81;2081883;28;20032;-82
2023/10/12 01:41:26;;;;;;;5.47;3.55;;;;;;;13.12;100.00;93215.03;2083083;28;20067;-83
2023/10/12 01:43:47;;;;;;;9.32;3.30;;;;;;;12.97;100.00;93214.72;2103014;28;20059;-82
2023/10/12 01:44:51;;;;;;;7.13;3.20;;;;;;;12.91;100.00;93216.44;2096939;28;20020;-83
2023/10/12 01:45:59;;;;;;;8.98;3.53;;;;;;;12.73;100.00;93216.94;2093429;28;20017;-82
2023/10/12 01:47:00;;;;;;;6.15;3.67;;;;;;;12.64;100.00;93208.00;2096545;28;20028;-82
2023/10/12 01:48:16;;;;;;;12.45;4.05;;;;;;;12.61;100.00;93209.63;2089350;28;20444;-83
2023/10/12 01:49:18;;;;;;;8.10;3.63;;;;;;;12.62;100.00;93211.13;2092828;28;20024;-82
2023/10/12 01:50:19;;;;;;;7.40;3.58;;;;;;;12.39;100.00;93209.47;2097571;28;20022;-82
2023/10/12 01:51:29;;;;;;;6.15;3.55;;;;;;;12.49;100.00;93211.09;2100889;28;20059;-83
2023/10/12 01:52:30;;;;;;;;;;;;;;;12.37;100.00;93211.81;2087481;28;20029;-83
2023/10/12 01:53:32;;;;;;;6.82;3.28;;;;;;;12.54;100.00;93210.56;2088969;28;19909;-82
2023/10/12 01:54:33;;;;;;;4.65;3.20;;;;;;;12.43;100.00;93212.81;2095010;28;20119;-83
2023/10/12 01:55:35;;;;;;;6.25;3.17;;;;;;;12.25;100.00;93213.28;2087574;28;20059;-82
2023/10/12 01:56:37;;;;;;;7.45;3.72;;;;;;;12.28;100.00;93211.66;2093520;28;20024;-83
2023/10/12 01:57:45;;;;;;;8.45;3.47;;;;;;;12.44;100.00;93206.25;2102909;28;20085;-83
2023/10/12 01:58:48;;;;;;;7.18;3.90;;;;;;;12.54;100.00;93207.13;2108541;28;20463;-82
2023/10/12 01:59:49;;;;;;;6.88;3.40;;;;;;;12.40;100.00;93210.97;2092900;28;20033;-82
2023/10/12 02:00:53;;;;;;;9.50;4.15;;;;;;;12.36;100.00;93204.94;2079625;28;20025;-82
2023/10/12 02:02:06;;;;;;;7.50;3.92;;;;;;;12.29;100.00;93207.81;2089756;28;20028;-82
2023/10/12 02:04:40;;;;;;;8.73;3.72;;;;;;;12.48;100.00;93203.47;2087436;28;20140;-83
2023/10/12 02:05:58;;;;;;;10.55;3.60;;;;;;;12.55;100.00;93203.28;2097374;28;20028;-83
2023/10/12 02:07:02;;;;;;;4.97;3.10;;;;;;;12.64;100.00;93206.06;2099117;28;20031;-83
2023/10/12 02:08:05;;;;;;;5.93;3.30;;;;;;;12.59;100.00;93202.00;2089521;28;20033;-83
2023/10/12 02:09:09;;;;;;;7.65;3.80;;;;;;;12.73;100.00;93208.13;2106158;28;20028;-83
2023/10/12 02:10:11;;;;;;;10.52;3.92;;;;;;;12.67;100.00;93196.44;2104696;28;20035;-83
2023/10/12 02:12:26;;;;;;;5.80;3.60;;;;;;;12.79;100.00;93198.41;2091022;28;20103;-83
2023/10/12 02:13:32;;;;;;;6.03;3.70;;;;;;;12.92;100.00;93195.72;2105383;28;20722;-83
2023/10/12 02:14:33;;;;;;;5.13;3.28;;;;;;;12.89;100.00;93201.94;2082848;28;20060;-83
2023/10/12 02:15:34;;;;;;;4.85;3.75;;;;;;;12.83;100.00;93194.44;2098769;28;20020;-83
2023/10/12 02:16:38;;;;;;;8.15;3.83;;;;;;;12.87;100.00;93193.59;2101311;28;20066;-83
2023/10/12 02:17:39;;;;;;;4.85;3.33;;;;;;;12.88;100.00;93195.09;2092815;28;20017;-83
2023/10/12 02:18:40;;;;;;;6.68;3.63;;;;;;;12.71;100.00;93197.84;2081031;28;20022;-82
2023/10/12 02:19:44;;;;;;;6.75;3.90;;;;;;;12.76;100.00;93194.63;2092768;28;20059;-83
2023/10/12 02:22:24;;;;;;;6.75;4.07;;;;;;;13.26;100.00;93189.75;2090481;28;20032;-83
2023/10/12 02:25:03;;;;;;;6.45;3.58;;;;;;;13.20;100.00;93191.44;2104320;28;20084;-82
2023/10/12 02:26:28;;;;;;;7.18;3.38;;;;;;;13.69;100.00;93191.81;2097147;28;20021;-83
2023/10/12 02:27:30;;;;;;;8.02;3.80;;;;;;;13.77;100.00;93189.66;2107316;28;20073;-83
2023/10/12 02:28:37;;;;;;;6.50;4.28;;;;;;;13.59;100.00;93193.69;2105884;28;20070;-82
2023/10/12 02:29:39;;;;;;;8.55;4.07;;;;;;;13.74;100.00;93193.97;2099421;28;20016;-83
2023/10/12 02:30:40;;;;;;;8.45;4.03;;;;;;;13.53;100.00;93200.03;2110796;28;20549;-83
2023/10/12 02:33:12;;;;;;;6.85;3.58;;;;;;;13.73;100.00;93199.78;2102853;28;20415;-83
2023/10/12 02:34:41;;;;;;;6.47;3.55;;;;;;;13.66;100.00;93200.75;2099884;28;20032;-83
2023/10/12 02:35:43;;;;;;;8.50;4.00;;;;;;;13.75;100.00;93197.41;2105286;28;20023;-83
2023/10/12 02:37:00;;;;;;;10.20;4.25;;;;;;;13.93;100.00;93202.22;2097122;28;20028;-83
2023/10/12 02:38:01;;;;;;;9.40;3.83;;;;;;;14.18;100.00;93193.28;2100144;28;20040;-83
2023/10/12 02:39:10;;;;;;;12.05;4.05;;;;;;;14.33;100.00;93188.94;2101951;28;20487;-83
2023/10/12 02:40:12;;;;;;;7.70;3.92;;;;;;;14.53;100.00;93191.31;2087259;28;20116;-83
2023/10/12 02:41:13;;;;;;;9.82;3.63;;;;;;;14.72;100.00;93187.56;2082586;28;20359;-83
2023/10/12 02:43:16;;;;;;;12.13;4.03;;;;;;;14.93;100.00;93191.44;2096856;28;20032;-82
2023/10/12 02:44:19;;;;;;;7.68;3.67;;;;;;;15.33;100.00;93193.38;2091826;28;20028;-82
2023/10/12 02:45:21;;;;;;;8.75;3.85;;;;;;;15.38;100.00;93190.09;2092782;28;20028;-83
2023/10/12 02:46:23;;;;;;;8.15;3.72;;;;;;;15.31;100.00;93188.44;2096999;28;20111;-85
2023/10/12 02:47:34;;;;;;;11.05;4.07;;;;;;;15.18;100.00;93195.84;2096942;28;20020;-82
2023/10/12 02:48:36;;;;;;;8.27;3.72;;;;;;;14.81;100.00;93189.56;2101054;28;20027;-83
2023/10/12 02:49:40;;;;;;;8.27;3.60;;;;;;;14.63;100.00;93194.84;2100089;28;20545;-83
2023/10/12 02:51:00;;;;;;;9.35;4.05;;;;;;;14.62;100.00;93188.72;2096914;28;20025;-82
2023/10/12 02:52:05;;;;;;;10.77;3.72;;;;;;;14.63;100.00;93198.28;2100388;28;20099;-82
2023/10/12 02:53:08;;;;;;;7.82;3.72;;;;;;;14.72;100.00;93197.59;2097423;28;20023;-82
2023/10/12 02:54:14;;;;;;;10.25;4.30;;;;;;;14.52;100.00;93193.28;2100865;28;20024;-83
2023/10/12 02:56:24;;;;;;;8.52;3.90;;;;;;;14.46;100.00;93195.00;2098230;28;20032;-83
2023/10/12 02:57:25;;;;;;;4.82;3.75;;;;;;;14.54;100.00;93196.28;2099037;28;20106;-82
2023/10/12 02:58:27;;;;;;;8.70;4.53;;;;;;;14.51;100.00;93199.84;2117309;28;20042;-82
2023/10/12 02:59:28;;;;;;;9.20;4.18;;;;;;;14.39;100.00;93208.69;2101801;28;20027;-83
2023/10/12 03:00:44;;;;;;;9.20;4.10;;;;;;;14.84;100.00;93205.59;2096978;28;20106;-82
2023/10/12 03:01:49;;;;;;;6.13;3.40;;;;;;;14.76;100.00;93204.34;2098999;28;20516;-83
2023/10/12 03:02:53;;;;;;;7.68;4.10;;;;;;;14.76;100.00;93208.97;2108691;28;20390;-82
2023/10/12 03:03:55;;;;;;;8.27;4.00;;;;;;;14.67;100.00;93206.97;2103830;28;20028;-83
2023/10/12 03:05:00;;;;;;;8.02;5.80;;;;;;;14.27;100.00;93218.31;2088910;28;20029;-82
2023/10/12 03:06:07;;;;;;;7.57;3.90;;;;;;;14.17;100.00;93221.38;2096320;28;20102;-83
2023/10/12 03:07:13;;;;;;;6.18;3.80;;;;;;;14.14;100.00;93212.25;2081086;28;20029;-83
2023/10/12 03:08:16;;;;;;;9.27;4.07;;;;;;;14.23;100.00;93209.63;2082008;28;20025;-83
2023/10/12 03:09:17;;;;;;;6.72;3.78;;;;;;;14.22;100.00;93210.03;2087609;28;20028;-82
2023/10/12 03:10:26;;;;;;;10.20;4.00;;;;;;;14.14;100.00;93216.88;2080262;28;20052;-83
2023/10/12 03:11:29;;;;;;;9.15;4.28;;;;;;;14.26;100.00;93208.00;2088339;28;20120;-83
2023/10/12 03:12:34;;;;;;;8.15;4.07;;;;;;;14.35;100.00;93213.44;2092173;28;20051;-83
2023/10/12 03:13:37;;;;;;;9.52;4.57;;;;;;;14.32;100.00;93209.69;2105364;28;20032;-82
2023/10/12 03:14:40;;;;;;;9.95;4.13;;;;;;;14.36;100.00;93207.63;2099375;28;20507;-82
2023/10/12 03:15:42;;;;;;;10.13;4.22;;;;;;;14.23;100.00;93212.31;2088535;28;20021;-83
2023/10/12 03:16:43;;;;;;;6.13;3.75;;;;;;;14.14;100.00;93214.94;2094762;28;20101;-83
2023/10/12 03:17:54;;;;;;;7.90;4.07;;;;;;;14.25;100.00;93212.63;2099087;28;20027;-82
2023/10/12 03:19:00;;;;;;;9.55;4.75;;;;;;;14.25;100.00;93209.94;2092415;28;20534;-82
2023/10/12 03:20:17;;;;;;;8.82;4.10;;;;;;;14.17;100.00;93213.28;2084755;28;20119;-83
2023/10/12 03:21:18;;;;;;;9.15;3.95;;;;;;;13.94;100.00;93212.50;2102571;28;20024;-82
2023/10/12 03:22:43;;;;;;;9.32;4.40;;;;;;;13.88;100.00;93211.56;2105127;28;20028;-82
2023/10/12 03:23:56;;;;;;;8.43;3.80;;;;;;;13.99;100.00;93214.66;2103466;28;20063;-82
2023/10/12 03:25:17;;;;;;;8.38;4.43;;;;;;;14.00;100.00;93212.72;2098164;28;20024;-82
2023/10/12 03:27:22;;;;;;;8.48;4.47;;;;;;;13.92;100.00;93211.47;2098469;28;20021;-82
2023/10/12 03:28:30;;;;;;;6.72;3.95;;;;;;;13.91;100.00;93215.31;2091262;28;20704;-82
2023/10/12 03:29:32;;;;;;;15.40;4.13;;;;;;;13.77;100.00;93209.22;2095923;28;20031;-82
2023/10/12 03:30:43;;;;;;;8.65;4.22;;;;;;;13.74;100.00;93207.41;2073814;28;20033;-82
2023/10/12 03:32:49;;;;;;;7.65;4.22;;;;;;;13.56;100.00;93205.31;2101881;28;20179;-82
2023/10/12 03:33:54;;;;;;;10.18;4.32;;;;;;;13.57;100.00;93209.47;2098448;28;20027;-82
2023/10/12 03:34:56;;;;;;;7.63;4.30;;;;;;;13.64;100.00;93205.81;2082268;28;20426;-82
2023/10/12 03:36:17;;;;;;;7.57;4.30;;;;;;;13.42;100.00;93208.41;2083376;28;20139;-83
2023/10/12 03:37:40;;;;;;;8.25;4.32;;;;;;;13.32;100.00;93201.44;2098652;28;20020;-83
2023/10/12 03:38:43;;;;;;;8.05;4.13;;;;;;;13.42;100.00;93202.28;2100955;28;20504;-82
2023/10/12 03:41:45;;;;;;;7.25;3.92;;;;;;;13.50;100.00;93198.97;2098870;28;20035;-82
2023/10/12 03:43:25;;;;;;;6.38;4.25;;;;;;;13.38;100.00;93197.03;2106345;28;20028;-83
2023/10/12 03:45:59;;;;;;;6.78;4.00;;;;;;;13.33;100.00;93198.31;2107395;28;20035;-82
2023/10/12 03:48:25;;;;;;;7.90;4.35;;;;;;;13.33;100.00;93192.22;2099090;28;20028;-82
2023/10/12 03:49:32;;;;;;;7.28;4.22;;;;;;;13.25;100.00;93190.91;2095522;28;20062;-82
2023/10/12 03:50:53;;;;;;;11.73;4.40;;;;;;;13.25;100.00;93188.22;2090776;28;20155;-82
2023/10/12 03:52:02;;;;;;;6.50;4.03;;;;;;;13.22;100.00;93181.81;2092882;28;20032;-83
2023/10/12 03:53:05;;;;;;;11.70;4.97;;;;;;;13.24;100.00;93189.41;2087408;28;20033;-82
2023/10/12 03:54:29;;;;;;;10.65;4.10;;;;;;;13.33;100.00;93189.53;2074049;28;20994;-82
2023/10/12 03:55:32;;;;;;;9.38;4.20;;;;;;;13.18;100.00;93186.50;2095631;28;20376;-82
2023/10/12 03:56:37;;;;;;;7.65;4.38;;;;;;;13.09;100.00;93195.19;2086809;28;20033;-82
2023/10/12 03:57:45;;;;;;;6.60;3.75;;;;;;;13.11;100.00;93198.19;2090819;28;20024;-82
2023/10/12 03:58:47;;;;;;;13.05;4.57;;;;;;;13.00;100.00;93189.72;2107268;28;20066;-83
2023/10/12 04:00:23;;;;;;;9.68;4.07;;;;;;;13.16;100.00;93188.09;2101187;28;20554;-82
2023/10/12 04:01:46;;;;;;;9.95;4.10;;;;;;;13.26;100.00;93187.06;2096077;28;20381;-83
2023/10/12 04:04:09;;;;;;;10.95;4.40;;;;;;;13.29;100.00;93194.25;2106534;28;20024;-83
2023/10/12 04:05:17;;;;;;;8.73;4.53;;;;;;;13.12;100.00;93193.56;2092367;28;20538;-82
2023/10/12 04:06:54;;;;;;;8.50;4.93;;;;;;;13.03;100.00;93188.84;2090184;28;20013;-81
2023/10/12 04:08:58;;;;;;;9.00;4.07;;;;;;;13.24;100.00;93194.78;2110694;28;20020;-83
2023/10/12 04:10:13;;;;;;;9.68;4.07;;;;;;;13.12;100.00;93193.56;2098150;28;20025;-82
2023/10/12 04:12:49;;;;;;;8.02;4.30;;;;;;;12.90;100.00;93193.47;2109198;28;20031;-82
2023/10/12 04:14:54;;;;;;;9.02;3.90;;;;;;;12.95;100.00;93200.22;2101407;28;20093;-83
2023/10/12 04:16:09;;;;;;;8.55;4.45;;;;;;;13.00;100.00;93187.03;2106792;28;20473;-82
2023/10/12 04:18:28;;;;;;;7.88;4.32;;;;;;;13.04;100.00;93195.00;2098524;28;20027;-82
2023/10/12 04:19:30;;;;;;;6.85;4.07;;;;;;;13.01;100.00;93199.28;2094128;28;20051;-82
2023/10/12 04:20:33;;;;;;;11.18;4.38;;;;;;;12.83;100.00;93193.69;2089993;28;20092;-83
2023/10/12 04:21:39;;;;;;;11.02;4.10;;;;;;;12.82;100.00;93195.63;2104295;28;20158;-82
2023/10/12 04:23:48;;;;;;;8.93;4.43;;;;;;;12.88;100.00;93185.09;2098097;28;20052;-83
2023/10/12 04:24:54;;;;;;;15.77;4.80;;;;;;;12.78;100.00;93188.84;2098707;28;20048;-82
2023/10/12 04:26:09;;;;;;;9.95;4.28;;;;;;;12.78;100.00;93188.84;2096422;28;20382;-82
2023/10/12 04:28:32;;;;;;;9.63;4.40;;;;;;;12.86;100.00;93187.44;2098912;28;20527;-82
2023/10/12 04:29:33;;;;;;;11.48;4.55;;;;;;;12.70;100.00;93184.88;2097364;28;20029;-82
2023/10/12 04:31:56;;;;;;;8.20;4.15;;;;;;;12.72;100.00;93183.25;2092136;28;20028;-82
2023/10/12 04:32:57;;;;;;;6.53;4.07;;;;;;;12.69;100.00;93183.38;2081310;28;20112;-82
2023/10/12 04:34:07;;;;;;;8.20;4.88;;;;;;;12.61;100.00;93185.50;2092049;28;20052;-82
2023/10/12 04:35:17;;;;;;;9.63;4.65;;;;;;;12.51;100.00;93178.47;2090435;28;20032;-82
2023/10/12 04:37:06;;;;;;;8.50;4.60;;;;;;;12.45;100.00;93190.91;2094018;28;20025;-82
2023/10/12 04:37:45;;;;;;;10.65;4.10;;;;;;;12.36;100.00;93186.19;2093181;28;20076;-83
2023/10/12 04:38:56;;;;;;;10.10;4.35;;;;;;;12.46;100.00;93187.81;2081540;28;20107;-82
2023/10/12 04:39:57;;;;;;;9.45;4.65;;;;;;;12.28;100.00;93184.88;2093885;28;20116;-82
2023/10/12 04:42:23;;;;;;;9.43;4.28;;;;;;;12.24;100.00;93182.28;2111432;28;20034;-82
2023/10/12 04:43:24;;;;;;;8.93;4.10;;;;;;;12.16;100.00;93186.34;2094430;28;20025;-82
2023/10/12 04:45:29;;;;;;;9.50;4.43;;;;;;;12.15;100.00;93194.78;2099750;28;20025;-83
2023/10/12 04:46:39;;;;;;;9.55;5.15;;;;;;;12.17;100.00;93187.09;2103138;28;20066;-83
2023/10/12 04:47:45;;;;;;;14.57;5.28;;;;;;;12.19;100.00;93190.09;2090016;28;20028;-83
2023/10/12 04:48:46;;;;;;;9.55;4.28;;;;;;;12.29;100.00;93197.09;2090110;28;20047;-83
2023/10/12 04:49:57;;;;;;;7.22;4.22;;;;;;;12.21;100.00;93193.13;2099366;28;20115;-83
2023/10/12 04:51:07;;;;;;;7.13;3.90;;;;;;;12.20;100.00;93195.03;2111844;28;20077;-83
2023/10/12 04:53:12;;;;;;;11.00;4.60;;;;;;;12.16;100.00;93207.00;2107707;28;20036;-83
2023/10/12 04:54:17;;;;;;;8.30;4.88;;;;;;;12.00;100.00;93203.22;2106744;28;20138;-83
2023/10/12 04:55:20;;;;;;;5.43;4.35;;;;;;;12.19;100.00;93208.84;2097832;28;20503;-83
2023/10/12 04:56:23;;;;;;;8.15;4.35;;;;;;;12.20;100.00;93208.41;2102015;28;20107;-83
2023/10/12 04:57:26;;;;;;;12.07;4.80;;;;;;;12.01;100.00;93215.41;2105862;28;20032;-83
2023/10/12 04:59:43;;;;;;;9.77;4.70;;;;;;;12.03;100.00;93210.41;2083199;28;20498;-83
2023/10/12 05:00:55;;;;;;;6.45;4.25;;;;;;;11.97;100.00;93204.03;2106308;28;20024;-83
2023/10/12 05:04:36;;;;;;;11.52;4.95;;;;;;;12.07;100.00;93211.06;2091263;28;20536;-83
2023/10/12 05:05:57;;;;;;;9.75;4.57;;;;;;;12.05;100.00;93210.72;2095252;28;20083;-83
2023/10/12 05:08:17;;;;;;;12.38;4.60;;;;;;;12.04;100.00;93205.81;2106615;28;20028;-83
2023/10/12 05:09:18;;;;;;;9.85;4.50;;;;;;;12.19;100.00;93204.25;2096772;28;20020;-83
2023/10/12 05:10:32;;;;;;;10.13;5.03;;;;;;;12.16;100.00;93202.44;2093399;28;20074;-83
2023/10/12 05:11:33;;;;;;;7.80;4.18;;;;;;;12.02;100.00;93202.78;2105072;28;20522;-85
2023/10/12 05:12:35;;;;;;;10.48;5.00;;;;;;;11.95;100.00;93205.66;2099932;28;20024;-84
2023/10/12 05:13:43;;;;;;;10.02;4.72;;;;;;;12.16;100.00;93204.31;2082838;28;20032;-85
2023/10/12 05:14:44;;;;;;;9.65;5.32;;;;;;;12.30;100.00;93206.66;2086233;28;20025;-84
2023/10/12 05:15:54;;;;;;;11.38;4.80;;;;;;;12.03;100.00;93205.06;2098029;28;20024;-84
2023/10/12 05:16:55;;;;;;;10.02;4.20;;;;;;;12.02;100.00;93200.84;2106512;28;20504;-83
2023/10/12 05:17:56;;;;;;;8.52;4.82;;;;;;;12.02;100.00;93206.19;2102991;28;20419;-84
2023/10/12 05:18:58;;;;;;;9.20;5.25;;;;;;;12.13;100.00;93205.19;2099935;28;20028;-85
2023/10/12 05:19:59;;;;;;;10.15;4.35;;;;;;;12.11;100.00;93208.28;2112396;28;20034;-84
2023/10/12 05:21:04;;;;;;;9.50;4.55;;;;;;;12.12;100.00;93201.00;2109530;28;20032;-84
2023/10/12 05:22:05;;;;;;;10.80;4.72;;;;;;;12.18;100.00;93204.66;2089201;28;20405;-84
2023/10/12 05:23:06;;;;;;;13.82;4.75;;;;;;;12.07;100.00;93203.03;2088631;28;20025;-84
2023/10/12 05:24:10;;;;;;;7.70;4.40;;;;;;;11.96;100.00;93202.53;2091312;28;20024;-84
2023/10/12 05:25:11;;;;;;;10.38;4.43;;;;;;;12.09;100.00;93206.03;2073985;28;20394;-84
2023/10/12 05:26:14;;;;;;;13.70;5.45;;;;;;;12.10;100.00;93196.81;2072727;28;20026;-84
2023/10/12 05:27:28;;;;;;;9.32;4.45;;;;;;;12.09;100.00;93195.31;2095776;28;20467;-83
2023/10/12 05:28:35;;;;;;;8.30;4.20;;;;;;;12.16;100.00;93199.75;2097423;28;20020;-83
2023/10/12 05:29:38;;;;;;;12.13;5.15;;;;;;;12.21;100.00;93195.78;2097335;28;20501;-84
2023/10/12 05:30:50;;;;;;;16.33;5.47;;;;;;;12.25;100.00;93205.25;2110955;28;20031;-84
2023/10/12 05:32:06;;;;;;;9.48;4.30;;;;;;;12.19;100.00;93203.50;2099617;28;20025;-84
2023/10/12 05:33:16;;;;;;;9.68;4.30;;;;;;;12.13;100.00;93205.94;2094121;28;20523;-84
2023/10/12 05:34:59;;;;;;;7.30;4.07;;;;;;;12.14;100.00;93207.44;2098898;28;20023;-84
2023/10/12 05:35:52;;;;;;;13.18;4.82;;;;;;;12.06;100.00;93201.50;2089903;28;20040;-84
2023/10/12 05:36:53;;;;;;;11.90;5.05;;;;;;;12.16;100.00;93207.00;2104751;28;20088;-84
2023/10/12 05:37:56;;;;;;;8.90;5.00;;;;;;;12.29;100.00;93211.25;2095867;28;20094;-84
2023/10/12 05:39:12;;;;;;;10.95;4.97;;;;;;;12.31;100.00;93208.16;2100663;28;20032;-84
2023/10/12 05:40:14;;;;;;;10.57;4.93;;;;;;;12.13;100.00;93211.31;2102214;28;20081;-84
2023/10/12 05:41:33;;;;;;;11.45;5.43;;;;;;;12.07;100.00;93210.28;2099455;28;20923;-84
2023/10/12 05:42:39;;;;;;;8.57;4.70;;;;;;;12.18;100.00;93210.03;2091265;28;20420;-84
2023/10/12 05:43:40;;;;;;;9.48;4.88;;;;;;;12.14;100.00;93217.41;2082168;28;20061;-84
2023/10/12 05:44:45;;;;;;;9.75;5.03;;;;;;;12.37;100.00;93219.09;2080281;28;20021;-84
2023/10/12 05:45:46;;;;;;;13.63;4.88;;;;;;;12.46;100.00;93209.25;2096522;28;20043;-84
2023/10/12 05:46:52;;;;;;;9.70;5.20;;;;;;;12.39;100.00;93211.41;2102815;28;20106;-84
2023/10/12 05:47:53;;;;;;;8.00;4.63;;;;;;;12.31;100.00;93221.56;2090618;28;20058;-84
2023/10/12 05:48:54;;;;;;;8.00;5.30;;;;;;;12.37;100.00;93217.16;2090787;28;20473;-84